createdAt,value
2018-09-05T00:02:18.568Z,17.27
2018-09-05T00:04:45.706Z,16.20
2018-09-05T00:07:13.021Z,16.40
2018-09-05T00:09:40.127Z,15.37
2018-09-05T00:12:07.229Z,16.60
2018-09-05T00:14:34.344Z,16.07
2018-09-05T00:17:01.457Z,17.00
2018-09-05T00:19:28.571Z,17.03
2018-09-05T00:21:55.686Z,17.70
2018-09-05T00:24:22.832Z,16.90
2018-09-05T00:26:49.995Z,17.40
2018-09-05T00:29:17.198Z,16.47
2018-09-05T00:31:44.294Z,16.60
2018-09-05T00:34:11.773Z,15.27
2018-09-05T00:36:38.901Z,17.07
2018-09-05T00:39:06.554Z,16.13
2018-09-05T00:41:33.653Z,16.77
2018-09-05T00:44:00.762Z,16.53
2018-09-05T00:46:27.912Z,17.00
2018-09-05T00:48:55.010Z,16.40
2018-09-05T00:51:22.195Z,15.00
2018-09-05T00:53:49.315Z,16.43
2018-09-05T00:56:16.712Z,16.47
2018-09-05T00:58:43.826Z,16.43
2018-09-05T01:01:10.929Z,16.37
2018-09-05T01:03:38.051Z,16.83
2018-09-05T01:06:05.157Z,17.20
2018-09-05T01:08:32.276Z,16.37
2018-09-05T01:10:59.383Z,16.10
2018-09-05T01:16:40.447Z,16.90
2018-09-05T01:19:07.552Z,16.33
2018-09-05T01:21:34.675Z,16.93
2018-09-05T01:24:01.793Z,16.10
2018-09-05T01:26:28.910Z,16.93
2018-09-05T01:28:56.022Z,16.50
2018-09-05T01:31:23.140Z,15.50
2018-09-05T01:33:50.262Z,15.57
2018-09-05T01:36:18.457Z,16.80
2018-09-05T01:38:45.563Z,15.50
2018-09-05T01:41:13.698Z,16.07
2018-09-05T01:43:41.403Z,16.50
2018-09-05T01:46:08.504Z,16.30
2018-09-05T01:48:36.118Z,16.43
2018-09-05T01:51:03.214Z,16.17
2018-09-05T01:53:30.342Z,16.50
2018-09-05T01:55:57.449Z,15.77
2018-09-05T01:58:24.563Z,15.53
2018-09-05T02:00:51.673Z,15.60
2018-09-05T02:03:18.800Z,16.30
2018-09-05T02:05:45.905Z,14.73
2018-09-05T02:08:13.004Z,15.90
2018-09-05T02:10:40.128Z,16.10
2018-09-05T02:13:07.229Z,15.63
2018-09-05T02:15:34.341Z,15.40
2018-09-05T02:18:01.453Z,16.67
2018-09-05T02:20:28.569Z,15.90
2018-09-05T02:22:55.675Z,16.20
2018-09-05T02:25:22.777Z,16.60
2018-09-05T02:27:49.889Z,15.80
2018-09-05T02:30:17.006Z,15.07
2018-09-05T02:32:44.122Z,16.70
2018-09-05T02:35:11.221Z,15.37
2018-09-05T02:37:38.338Z,14.87
2018-09-05T02:40:05.890Z,14.90
2018-09-05T02:42:33.006Z,15.53
2018-09-05T02:45:00.165Z,16.30
2018-09-05T02:47:27.289Z,16.10
2018-09-05T02:49:54.635Z,15.50
2018-09-05T02:52:21.779Z,15.50
2018-09-05T02:54:48.890Z,15.00
2018-09-05T02:57:16.002Z,14.97
2018-09-05T02:59:43.102Z,15.57
2018-09-05T03:02:10.217Z,15.93
2018-09-05T03:04:37.342Z,15.00
2018-09-05T03:07:04.481Z,14.80
2018-09-05T03:09:31.760Z,16.33
2018-09-05T03:11:58.779Z,15.60
2018-09-05T03:14:25.946Z,15.70
2018-09-05T03:16:53.498Z,15.00
2018-09-05T03:19:20.597Z,15.60
2018-09-05T03:21:47.714Z,15.20
2018-09-05T03:24:14.827Z,14.87
2018-09-05T03:26:41.934Z,14.93
2018-09-05T03:29:09.098Z,14.10
2018-09-05T03:31:36.230Z,15.00
2018-09-05T03:34:03.358Z,14.73
2018-09-05T03:36:30.470Z,14.77
2018-09-05T03:38:57.588Z,15.47
2018-09-05T03:41:24.694Z,15.10
2018-09-05T03:43:51.805Z,14.77
2018-09-05T03:46:18.941Z,14.70
2018-09-05T03:48:46.048Z,15.27
2018-09-05T03:51:13.182Z,15.87
2018-09-05T03:53:40.314Z,15.73
2018-09-05T03:56:07.422Z,14.47
2018-09-05T03:58:34.535Z,15.60
2018-09-05T04:01:01.646Z,15.40
2018-09-05T04:03:28.778Z,15.30
2018-09-05T04:05:55.877Z,14.30
2018-09-05T04:08:22.986Z,14.60
2018-09-05T04:10:50.099Z,13.40
2018-09-05T04:13:17.230Z,14.10
2018-09-05T04:15:44.378Z,13.77
2018-09-05T04:18:11.557Z,14.40
2018-09-05T04:20:38.731Z,13.83
2018-09-05T04:23:06.103Z,14.70
2018-09-05T04:25:33.205Z,14.10
2018-09-05T04:28:00.322Z,13.90
2018-09-05T04:30:27.425Z,14.40
2018-09-05T04:32:54.541Z,14.90
2018-09-05T04:35:21.649Z,13.97
2018-09-05T04:37:48.753Z,14.70
2018-09-05T04:40:15.915Z,14.83
2018-09-05T04:42:43.203Z,14.17
2018-09-05T04:45:10.316Z,15.77
2018-09-05T04:47:37.474Z,13.80
2018-09-05T04:50:04.613Z,14.73
2018-09-05T04:52:31.799Z,14.53
2018-09-05T04:54:58.830Z,14.43
2018-09-05T04:57:25.950Z,14.63
2018-09-05T04:59:53.056Z,15.00
2018-09-05T05:02:20.241Z,15.30
2018-09-05T05:04:47.334Z,15.07
2018-09-05T05:07:14.445Z,14.67
2018-09-05T05:09:41.574Z,15.27
2018-09-05T05:12:08.685Z,14.80
2018-09-05T05:14:35.902Z,14.87
2018-09-05T05:17:03.005Z,15.57
2018-09-05T05:19:30.185Z,14.13
2018-09-05T05:21:57.265Z,14.67
2018-09-05T05:24:24.513Z,14.33
2018-09-05T05:26:51.662Z,14.10
2018-09-05T05:29:19.122Z,13.93
2018-09-05T05:31:46.231Z,14.03
2018-09-05T05:34:13.382Z,14.30
2018-09-05T05:36:40.492Z,14.27
2018-09-05T05:39:08.477Z,13.80
2018-09-05T05:41:35.626Z,14.10
2018-09-05T05:44:02.734Z,14.73
2018-09-05T05:46:29.872Z,14.50
2018-09-05T05:48:56.977Z,15.07
2018-09-05T05:51:24.091Z,15.00
2018-09-05T05:53:51.189Z,15.37
2018-09-05T05:56:18.301Z,15.30
2018-09-05T05:58:45.409Z,15.07
2018-09-05T06:01:12.646Z,15.97
2018-09-05T06:03:39.670Z,15.00
2018-09-05T06:06:06.833Z,15.20
2018-09-05T06:08:33.990Z,14.93
2018-09-05T06:11:01.108Z,14.27
2018-09-05T06:13:28.217Z,14.43
2018-09-05T06:15:55.378Z,14.90
2018-09-05T06:18:22.567Z,15.07
2018-09-05T06:20:49.646Z,16.30
2018-09-05T06:23:16.754Z,14.80
2018-09-05T06:25:43.848Z,15.20
2018-09-05T06:28:10.982Z,15.40
2018-09-05T06:30:38.188Z,14.30
2018-09-05T06:33:05.238Z,14.37
2018-09-05T06:35:32.346Z,14.20
2018-09-05T06:37:59.489Z,14.80
2018-09-05T06:40:26.569Z,14.10
2018-09-05T06:42:53.734Z,16.23
2018-09-05T06:45:20.924Z,15.87
2018-09-05T06:47:48.095Z,15.30
2018-09-05T06:50:15.360Z,15.40
2018-09-05T06:52:42.482Z,16.20
2018-09-05T06:55:09.612Z,16.10
2018-09-05T06:57:36.720Z,15.00
2018-09-05T07:00:04.113Z,15.47
2018-09-05T07:02:31.265Z,16.50
2018-09-05T07:04:58.393Z,17.07
2018-09-05T07:07:26.454Z,16.77
2018-09-05T07:09:53.603Z,16.20
2018-09-05T07:12:20.681Z,16.20
2018-09-05T07:14:47.796Z,15.83
2018-09-05T07:17:15.004Z,15.30
2018-09-05T07:19:42.081Z,15.20
2018-09-05T07:22:09.237Z,14.97
2018-09-05T07:24:36.329Z,15.03
2018-09-05T07:27:03.449Z,15.50
2018-09-05T07:29:30.717Z,14.80
2018-09-05T07:31:57.858Z,15.40
2018-09-05T07:34:24.994Z,15.07
2018-09-05T07:36:52.110Z,15.30
2018-09-05T07:39:19.220Z,15.40
2018-09-05T07:41:46.333Z,14.67
2018-09-05T07:44:13.433Z,15.60
2018-09-05T07:46:40.542Z,15.20
2018-09-05T07:49:07.996Z,16.40
2018-09-05T07:51:35.093Z,16.63
2018-09-05T07:54:02.192Z,16.90
2018-09-05T07:56:29.306Z,15.90
2018-09-05T07:58:56.420Z,16.73
2018-09-05T08:01:23.595Z,16.77
2018-09-05T08:03:50.708Z,16.10
2018-09-05T08:06:17.805Z,16.70
2018-09-05T08:08:44.914Z,15.97
2018-09-05T08:11:12.105Z,16.30
2018-09-05T08:13:39.209Z,16.13
2018-09-05T08:16:06.573Z,16.80
2018-09-05T08:18:33.762Z,15.67
2018-09-05T08:21:01.197Z,16.63
2018-09-05T08:23:28.313Z,16.50
2018-09-05T08:25:55.413Z,16.30
2018-09-05T08:28:22.526Z,16.27
2018-09-05T08:30:49.648Z,16.20
2018-09-05T08:33:16.785Z,17.10
2018-09-05T08:35:44.178Z,15.43
2018-09-05T08:38:11.054Z,15.67
2018-09-05T08:40:38.182Z,15.23
2018-09-05T08:43:05.351Z,14.63
2018-09-05T08:45:37.693Z,15.83
2018-09-05T08:48:07.103Z,15.00
2018-09-05T08:50:34.833Z,16.20
2018-09-05T08:53:06.728Z,15.80
2018-09-05T08:55:33.946Z,14.90
2018-09-05T08:58:01.113Z,15.00
2018-09-05T09:00:28.303Z,14.03
2018-09-05T09:02:55.438Z,14.13
2018-09-05T09:05:22.532Z,14.80
2018-09-05T09:07:50.397Z,14.90
2018-09-05T09:10:22.305Z,14.23
2018-09-05T09:12:52.188Z,14.27
2018-09-05T09:15:22.268Z,15.07
2018-09-05T09:17:52.356Z,14.10
2018-09-05T09:20:21.422Z,16.17
2018-09-05T09:22:48.638Z,15.43
2018-09-05T09:25:15.761Z,15.20
2018-09-05T09:27:43.017Z,14.80
2018-09-05T09:30:10.085Z,15.40
2018-09-05T09:32:38.413Z,13.30
2018-09-05T09:35:07.282Z,14.07
2018-09-05T09:37:34.421Z,14.27
2018-09-05T09:40:01.529Z,14.70
2018-09-05T09:42:30.488Z,14.17
2018-09-05T09:44:57.588Z,14.27
2018-09-05T09:47:24.829Z,14.40
2018-09-05T09:49:51.938Z,13.50
2018-09-05T09:52:19.302Z,13.77
2018-09-05T09:54:47.465Z,13.60
2018-09-05T09:57:16.709Z,13.87
2018-09-05T09:59:43.991Z,13.27
2018-09-05T10:02:16.542Z,13.80
2018-09-05T10:04:49.172Z,13.90
2018-09-05T10:07:21.764Z,14.13
2018-09-05T10:09:53.616Z,13.23
2018-09-05T10:12:25.900Z,13.50
2018-09-05T10:14:57.354Z,13.53
2018-09-05T10:17:30.782Z,13.30
2018-09-05T10:19:58.745Z,13.63
2018-09-05T10:22:25.916Z,14.07
2018-09-05T10:24:53.810Z,13.30
2018-09-05T10:27:21.014Z,13.20
2018-09-05T10:29:48.114Z,13.77
2018-09-05T10:32:15.222Z,13.37
2018-09-05T10:34:42.637Z,12.17
2018-09-05T10:37:09.747Z,12.53
2018-09-05T10:39:36.861Z,13.13
2018-09-05T10:42:03.970Z,13.17
2018-09-05T10:44:31.091Z,13.27
2018-09-05T10:46:58.209Z,12.90
2018-09-05T10:49:25.354Z,14.30
2018-09-05T10:51:55.109Z,13.10
2018-09-05T10:54:22.398Z,13.53
2018-09-05T10:56:49.509Z,13.40
2018-09-05T10:59:16.634Z,12.50
2018-09-05T11:01:43.755Z,12.87
2018-09-05T11:04:10.890Z,12.13
2018-09-05T11:06:37.992Z,12.37
2018-09-05T11:09:07.006Z,12.60
2018-09-05T11:11:34.113Z,13.60
2018-09-05T11:14:01.236Z,13.00
2018-09-05T11:16:28.350Z,12.30
2018-09-05T11:18:55.466Z,12.27
2018-09-05T11:21:22.681Z,13.00
2018-09-05T11:23:49.742Z,12.83
2018-09-05T11:26:16.847Z,13.50
2018-09-05T11:28:43.993Z,12.43
2018-09-05T11:31:11.098Z,14.23
2018-09-05T11:33:38.210Z,12.80
2018-09-05T11:36:05.540Z,13.20
2018-09-05T11:38:32.654Z,12.57
2018-09-05T11:40:59.794Z,13.10
2018-09-05T11:43:27.012Z,12.27
2018-09-05T11:45:54.110Z,12.67
2018-09-05T11:48:21.529Z,11.73
2018-09-05T11:50:48.633Z,13.03
2018-09-05T11:53:15.763Z,12.53
2018-09-05T11:55:42.873Z,11.93
2018-09-05T11:58:10.018Z,12.67
2018-09-05T12:00:37.151Z,12.00
2018-09-05T12:03:04.269Z,12.33
2018-09-05T12:05:31.421Z,11.83
2018-09-05T12:07:58.546Z,13.00
2018-09-05T12:10:25.671Z,12.80
2018-09-05T12:12:53.202Z,12.20
2018-09-05T12:15:20.323Z,12.63
2018-09-05T12:17:47.485Z,13.23
2018-09-05T12:20:14.600Z,13.30
2018-09-05T12:22:41.757Z,13.20
2018-09-05T12:25:08.933Z,14.03
2018-09-05T12:27:36.054Z,13.10
2018-09-05T12:30:03.293Z,12.03
2018-09-05T12:32:30.410Z,13.43
2018-09-05T12:34:57.564Z,13.13
2018-09-05T12:37:24.726Z,12.70
2018-09-05T12:39:51.846Z,13.50
2018-09-05T12:42:18.952Z,13.43
2018-09-05T12:44:46.091Z,12.50
2018-09-05T12:47:13.179Z,13.10
2018-09-05T12:49:40.302Z,12.30
2018-09-05T12:52:07.409Z,14.03
2018-09-05T12:54:34.532Z,13.13
2018-09-05T12:57:02.076Z,13.03
2018-09-05T12:59:29.182Z,13.30
2018-09-05T13:01:56.297Z,12.83
2018-09-05T13:04:23.890Z,13.40
2018-09-05T13:06:51.016Z,12.67
2018-09-05T13:09:18.136Z,13.00
2018-09-05T13:11:45.266Z,12.13
2018-09-05T13:14:12.377Z,12.30
2018-09-05T13:16:39.561Z,12.87
2018-09-05T13:19:06.949Z,12.60
2018-09-05T13:21:34.118Z,13.57
2018-09-05T13:24:01.341Z,11.97
2018-09-05T13:26:28.509Z,13.50
2018-09-05T13:28:55.709Z,12.43
2018-09-05T13:31:22.821Z,12.47
2018-09-05T13:33:50.018Z,12.27
2018-09-05T13:36:17.135Z,12.40
2018-09-05T13:38:44.358Z,13.00
2018-09-05T13:41:11.493Z,13.00
2018-09-05T13:43:38.660Z,13.13
2018-09-05T13:46:05.787Z,12.80
2018-09-05T13:48:33.024Z,12.27
2018-09-05T13:51:00.237Z,12.57
2018-09-05T13:53:27.869Z,11.70
2018-09-05T13:55:54.991Z,11.50
2018-09-05T13:58:22.093Z,12.47
2018-09-05T14:00:49.218Z,11.63
2018-09-05T14:03:16.353Z,11.50
2018-09-05T14:05:43.461Z,11.37
2018-09-05T14:08:10.565Z,11.43
2018-09-05T14:10:37.745Z,11.63
2018-09-05T14:13:04.880Z,11.57
2018-09-05T14:15:32.093Z,11.60
2018-09-05T14:17:59.241Z,11.07
2018-09-05T14:20:31.037Z,11.70
2018-09-05T14:22:58.475Z,11.00
2018-09-05T14:25:25.706Z,11.23
2018-09-05T14:27:52.906Z,11.47
2018-09-05T14:30:20.063Z,11.40
2018-09-05T14:32:47.177Z,11.27
2018-09-05T14:35:14.285Z,11.30
2018-09-05T14:37:41.585Z,11.57
2018-09-05T14:40:08.762Z,11.07
2018-09-05T14:42:35.883Z,10.63
2018-09-05T14:45:03.025Z,10.80
2018-09-05T14:47:30.168Z,10.43
2018-09-05T14:49:57.369Z,11.20
2018-09-05T14:52:24.497Z,11.07
2018-09-05T14:54:51.706Z,11.30
2018-09-05T14:57:18.911Z,11.73
2018-09-05T14:59:46.001Z,11.03
2018-09-05T15:02:13.189Z,10.43
2018-09-05T15:04:40.358Z,10.33
2018-09-05T15:07:07.566Z,10.53
2018-09-05T15:09:34.885Z,10.73
2018-09-05T15:12:02.304Z,10.47
2018-09-05T15:14:29.521Z,10.37
2018-09-05T15:16:56.692Z,10.40
2018-09-05T15:19:25.381Z,10.07
2018-09-05T15:21:53.116Z,9.43
2018-09-05T15:24:20.360Z,10.13
2018-09-05T15:26:47.529Z,10.20
2018-09-05T15:29:14.681Z,9.43
2018-09-05T15:31:42.134Z,10.63
2018-09-05T15:34:09.349Z,10.10
2018-09-05T15:36:36.490Z,10.47
2018-09-05T15:39:03.883Z,10.20
2018-09-05T15:41:31.014Z,10.40
2018-09-05T15:43:58.254Z,10.07
2018-09-05T15:46:25.632Z,10.70
2018-09-05T15:48:52.874Z,10.03
2018-09-05T15:51:20.082Z,10.30
2018-09-05T15:53:47.196Z,10.80
2018-09-05T15:56:14.446Z,10.67
2018-09-05T15:58:41.686Z,9.97
2018-09-05T16:01:08.797Z,10.40
2018-09-05T16:03:35.950Z,11.73
2018-09-05T16:06:03.030Z,10.57
2018-09-05T16:08:30.145Z,10.33
2018-09-05T16:10:57.262Z,11.13
2018-09-05T16:13:24.459Z,9.80
2018-09-05T16:15:52.042Z,10.77
2018-09-05T16:18:19.168Z,10.73
2018-09-05T16:20:46.320Z,10.70
2018-09-05T16:23:13.424Z,10.50
2018-09-05T16:25:40.573Z,10.83
2018-09-05T16:28:07.702Z,10.63
2018-09-05T16:30:34.835Z,10.77
2018-09-05T16:33:02.002Z,10.40
2018-09-05T16:35:29.110Z,11.67
2018-09-05T16:37:56.267Z,10.53
2018-09-05T16:40:23.369Z,10.33
2018-09-05T16:42:50.489Z,11.30
2018-09-05T16:45:17.985Z,11.50
2018-09-05T16:47:45.097Z,10.93
2018-09-05T16:50:12.209Z,11.50
2018-09-05T16:52:39.364Z,11.23
2018-09-05T16:55:06.598Z,11.17
2018-09-05T16:57:33.780Z,11.57
2018-09-05T17:00:00.915Z,11.23
2018-09-05T17:02:28.039Z,11.10
2018-09-05T17:04:55.277Z,12.00
2018-09-05T17:07:22.463Z,10.97
2018-09-05T17:09:49.788Z,11.53
2018-09-05T17:12:16.913Z,11.73
2018-09-05T17:14:44.477Z,11.03
2018-09-05T17:17:11.673Z,11.93
2018-09-05T17:19:38.875Z,12.00
2018-09-05T17:22:06.074Z,11.70
2018-09-05T17:24:33.178Z,11.27
2018-09-05T17:27:00.313Z,11.33
2018-09-05T17:29:27.504Z,11.97
2018-09-05T17:31:54.644Z,11.30
2018-09-05T17:34:21.757Z,12.20
2018-09-05T17:36:48.927Z,11.00
2018-09-05T17:39:16.113Z,12.20
2018-09-05T17:41:43.330Z,11.80
2018-09-05T17:44:11.173Z,10.90
2018-09-05T17:46:38.457Z,11.80
2018-09-05T17:49:05.874Z,10.60
2018-09-05T17:51:33.036Z,10.50
2018-09-05T17:54:02.430Z,10.80
2018-09-05T17:56:39.695Z,9.80
2018-09-05T17:59:07.910Z,9.13
2018-09-05T18:01:35.082Z,8.70
2018-09-05T18:04:12.118Z,10.40
2018-09-05T18:06:39.633Z,10.03
2018-09-05T18:09:07.347Z,10.23
2018-09-05T18:11:34.486Z,8.63
2018-09-05T18:14:01.645Z,9.10
2018-09-05T18:16:30.198Z,8.37
2018-09-05T18:18:57.393Z,8.80
2018-09-05T18:21:25.461Z,8.33
2018-09-05T18:23:55.473Z,7.30
2018-09-05T18:26:22.620Z,7.90
2018-09-05T18:28:49.740Z,8.37
2018-09-05T18:31:16.917Z,9.40
2018-09-05T18:33:44.157Z,8.30
2018-09-05T18:36:11.333Z,9.00
2018-09-05T18:38:38.501Z,9.00
2018-09-05T18:41:05.797Z,10.27
2018-09-05T18:43:33.034Z,9.20
2018-09-05T18:46:00.250Z,8.90
2018-09-05T18:48:27.396Z,9.30
2018-09-05T18:50:55.398Z,9.33
2018-09-05T18:53:28.080Z,9.17
2018-09-05T18:56:02.968Z,9.40
2018-09-05T18:58:30.581Z,9.90
2018-09-05T19:00:57.748Z,10.00
2018-09-05T19:03:24.896Z,9.60
2018-09-05T19:05:51.992Z,10.03
2018-09-05T19:08:19.155Z,10.33
2018-09-05T19:10:46.276Z,9.57
2018-09-05T19:13:13.377Z,9.80
2018-09-05T19:15:40.481Z,9.77
2018-09-05T19:18:07.691Z,10.47
2018-09-05T19:20:34.861Z,10.30
2018-09-05T19:23:02.311Z,10.50
2018-09-05T19:25:29.593Z,10.33
2018-09-05T19:27:56.722Z,9.73
2018-09-05T19:30:24.027Z,10.20
2018-09-05T19:32:51.141Z,10.10
2018-09-05T19:35:18.533Z,10.63
2018-09-05T19:37:45.628Z,9.90
2018-09-05T19:40:12.850Z,10.30
2018-09-05T19:42:39.965Z,11.10
2018-09-05T19:45:07.432Z,10.73
2018-09-05T19:47:34.584Z,10.73
2018-09-05T19:50:01.795Z,10.90
2018-09-05T19:52:28.929Z,10.80
2018-09-05T19:54:56.181Z,10.27
2018-09-05T19:57:23.285Z,10.33
2018-09-05T19:59:50.397Z,10.60
2018-09-05T20:02:17.505Z,10.50
2018-09-05T20:04:44.617Z,10.77
2018-09-05T20:07:11.741Z,11.17
2018-09-05T20:09:38.858Z,10.33
2018-09-05T20:12:05.999Z,9.73
2018-09-05T20:14:33.179Z,10.97
2018-09-05T20:17:00.351Z,10.37
2018-09-05T20:19:27.461Z,10.37
2018-09-05T20:21:54.582Z,10.50
2018-09-05T20:24:21.724Z,10.47
2018-09-05T20:26:48.830Z,10.20
2018-09-05T20:29:15.947Z,10.40
2018-09-05T20:31:43.049Z,12.37
2018-09-05T20:34:10.178Z,11.27
2018-09-05T20:36:37.289Z,10.20
2018-09-05T20:39:06.413Z,10.43
2018-09-05T20:41:33.533Z,10.00
2018-09-05T20:44:00.734Z,10.33
2018-09-05T20:46:27.874Z,12.60
2018-09-05T20:48:55.079Z,10.60
2018-09-05T20:51:22.191Z,11.00
2018-09-05T20:53:49.288Z,10.87
2018-09-05T20:56:16.410Z,11.20
2018-09-05T20:58:43.604Z,10.97
2018-09-05T21:01:10.689Z,9.97
2018-09-05T21:03:37.807Z,10.80
2018-09-05T21:06:04.968Z,11.17
2018-09-05T21:08:32.113Z,11.30
2018-09-05T21:10:59.181Z,11.40
2018-09-05T21:13:26.309Z,11.43
2018-09-05T21:15:53.445Z,10.50
2018-09-05T21:18:20.630Z,11.30
2018-09-05T21:20:48.077Z,11.67
2018-09-05T21:23:15.207Z,11.40
2018-09-05T21:25:42.309Z,12.40
2018-09-05T21:28:09.478Z,11.63
2018-09-05T21:30:36.611Z,12.10
2018-09-05T21:33:03.754Z,12.83
2018-09-05T21:35:30.876Z,12.23
2018-09-05T21:37:58.003Z,13.10
2018-09-05T21:40:25.130Z,13.03
2018-09-05T21:42:52.258Z,13.20
2018-09-05T21:45:19.369Z,12.90
2018-09-05T21:47:46.477Z,12.50
2018-09-05T21:50:13.590Z,12.20
2018-09-05T21:52:40.732Z,13.43
2018-09-05T21:55:07.826Z,13.63
2018-09-05T21:57:34.932Z,13.47
2018-09-05T22:00:02.071Z,12.83
2018-09-05T22:02:29.190Z,12.63
2018-09-05T22:04:56.300Z,12.20
2018-09-05T22:07:23.448Z,11.67
2018-09-05T22:09:50.556Z,11.70
2018-09-05T22:12:17.669Z,11.93
2018-09-05T22:14:44.797Z,11.73
2018-09-05T22:17:13.006Z,12.00
2018-09-05T22:19:40.368Z,12.30
2018-09-05T22:22:07.617Z,12.63
2018-09-05T22:24:35.246Z,12.70
2018-09-05T22:27:02.381Z,12.67
2018-09-05T22:29:29.510Z,11.83
2018-09-05T22:31:56.628Z,12.60
2018-09-05T22:34:23.726Z,12.07
2018-09-05T22:36:50.842Z,12.17
2018-09-05T22:39:17.937Z,11.93
2018-09-05T22:41:45.055Z,12.00
2018-09-05T22:44:17.899Z,12.17
2018-09-05T22:46:50.639Z,12.50
2018-09-05T22:51:37.535Z,11.83
2018-09-05T22:54:12.062Z,12.20
2018-09-05T22:56:54.275Z,12.13
2018-09-05T22:59:57.962Z,11.70
2018-09-05T23:02:34.997Z,13.20
2018-09-05T23:05:07.850Z,13.50
2018-09-05T23:07:40.630Z,12.10
2018-09-05T23:10:13.723Z,13.43
2018-09-05T23:12:46.515Z,13.07
2018-09-05T23:15:19.147Z,13.17
2018-09-05T23:17:51.866Z,14.13
2018-09-05T23:20:26.062Z,13.53
2018-09-05T23:22:58.936Z,14.50
2018-09-05T23:25:26.042Z,14.80
2018-09-05T23:27:53.146Z,14.40
2018-09-05T23:30:20.262Z,15.00
2018-09-05T23:32:47.383Z,15.70
2018-09-05T23:35:14.523Z,15.10
2018-09-05T23:37:41.639Z,17.60
2018-09-05T23:40:08.753Z,18.70
2018-09-05T23:42:35.868Z,19.60
2018-09-05T23:45:03.006Z,19.90
2018-09-05T23:47:30.130Z,20.13
2018-09-05T23:49:57.359Z,20.03
2018-09-05T23:52:24.778Z,20.30
2018-09-05T23:54:51.887Z,19.80
2018-09-05T23:57:18.998Z,20.10
2018-09-05T23:59:46.283Z,16.47
